createdAt,value
2019-02-14T00:00:07.187Z,4.70
2019-02-14T00:00:38.407Z,4.17
2019-02-14T00:01:09.662Z,4.12
2019-02-14T00:01:40.884Z,3.87
2019-02-14T00:02:12.362Z,4.45
2019-02-14T00:02:45.566Z,4.10
2019-02-14T00:03:16.774Z,3.72
2019-02-14T00:03:47.992Z,4.22
2019-02-14T00:04:19.217Z,4.10
2019-02-14T00:04:50.504Z,4.12
2019-02-14T00:05:21.708Z,4.08
2019-02-14T00:05:52.945Z,4.35
2019-02-14T00:06:24.148Z,4.28
2019-02-14T00:06:57.369Z,4.40
2019-02-14T00:07:28.770Z,4.40
2019-02-14T00:07:59.973Z,4.12
2019-02-14T00:08:31.230Z,4.30
2019-02-14T00:09:02.442Z,4.47
2019-02-14T00:09:33.752Z,4.15
2019-02-14T00:10:04.962Z,4.45
2019-02-14T00:10:36.211Z,4.67
2019-02-14T00:11:07.420Z,4.40
2019-02-14T00:11:38.645Z,4.45
2019-02-14T00:12:10.926Z,4.47
2019-02-14T00:12:42.136Z,4.30
2019-02-14T00:13:14.284Z,4.53
2019-02-14T00:13:45.551Z,4.15
2019-02-14T00:14:16.753Z,4.62
2019-02-14T00:14:47.988Z,3.90
2019-02-14T00:15:19.186Z,4.50
2019-02-14T00:15:50.432Z,4.83
2019-02-14T00:16:21.634Z,4.22
2019-02-14T00:16:52.926Z,4.45
2019-02-14T00:17:24.138Z,3.58
2019-02-14T00:17:56.503Z,4.20
2019-02-14T00:18:27.761Z,4.20
2019-02-14T00:18:58.975Z,3.95
2019-02-14T00:19:30.183Z,4.35
2019-02-14T00:20:01.448Z,4.40
2019-02-14T00:20:32.675Z,3.87
2019-02-14T00:21:03.951Z,4.50
2019-02-14T00:21:35.201Z,4.40
2019-02-14T00:22:08.535Z,4.10
2019-02-14T00:22:39.797Z,4.37
2019-02-14T00:23:10.990Z,3.90
2019-02-14T00:23:42.238Z,4.15
2019-02-14T00:24:13.535Z,3.42
2019-02-14T00:24:44.755Z,4.92
2019-02-14T00:25:15.990Z,4.47
2019-02-14T00:25:47.190Z,4.30
2019-02-14T00:26:18.416Z,4.65
2019-02-14T00:26:49.646Z,4.00
2019-02-14T00:27:20.944Z,3.65
2019-02-14T00:27:52.179Z,4.70
2019-02-14T00:28:23.391Z,4.35
2019-02-14T00:28:57.135Z,4.20
2019-02-14T00:29:28.362Z,4.33
2019-02-14T00:30:01.580Z,4.05
2019-02-14T00:30:32.835Z,4.00
2019-02-14T00:31:04.067Z,3.67
2019-02-14T00:31:35.283Z,4.12
2019-02-14T00:32:06.507Z,4.37
2019-02-14T00:32:37.752Z,4.22
2019-02-14T00:33:08.979Z,3.58
2019-02-14T00:33:40.194Z,3.55
2019-02-14T00:34:11.464Z,3.83
2019-02-14T00:34:42.669Z,3.87
2019-02-14T00:35:14.957Z,4.30
2019-02-14T00:35:46.151Z,4.25
2019-02-14T00:36:17.367Z,3.67
2019-02-14T00:36:48.600Z,3.85
2019-02-14T00:37:19.802Z,3.65
2019-02-14T00:37:51.933Z,3.85
2019-02-14T00:38:23.157Z,4.08
2019-02-14T00:38:54.406Z,3.90
2019-02-14T00:39:25.629Z,4.53
2019-02-14T00:39:56.845Z,4.00
2019-02-14T00:40:28.048Z,4.53
2019-02-14T00:40:59.250Z,4.08
2019-02-14T00:41:30.457Z,4.17
2019-02-14T00:42:01.677Z,4.10
2019-02-14T00:42:32.871Z,4.37
2019-02-14T00:43:06.119Z,4.08
2019-02-14T00:43:37.353Z,4.08
2019-02-14T00:44:08.573Z,4.50
2019-02-14T00:44:40.157Z,4.30
2019-02-14T00:45:11.391Z,4.47
2019-02-14T00:45:42.608Z,5.05
2019-02-14T00:46:13.805Z,5.08
2019-02-14T00:46:45.036Z,5.10
2019-02-14T00:47:17.321Z,4.92
2019-02-14T00:47:50.568Z,4.78
2019-02-14T00:48:21.783Z,4.22
2019-02-14T00:48:53.006Z,4.15
2019-02-14T00:49:24.233Z,4.53
2019-02-14T00:49:55.458Z,3.40
2019-02-14T00:50:26.684Z,3.83
2019-02-14T00:50:57.920Z,3.87
2019-02-14T00:51:29.170Z,4.25
2019-02-14T00:52:00.367Z,4.33
2019-02-14T00:52:31.589Z,3.85
2019-02-14T00:53:02.812Z,3.70
2019-02-14T00:53:34.056Z,4.10
2019-02-14T00:54:05.273Z,4.15
2019-02-14T00:54:36.516Z,3.80
2019-02-14T00:55:07.723Z,3.70
2019-02-14T00:55:40.011Z,3.67
2019-02-14T00:56:11.261Z,3.27
2019-02-14T00:56:42.484Z,2.90
2019-02-14T00:57:14.645Z,4.00
2019-02-14T00:57:45.896Z,3.22
2019-02-14T00:58:17.126Z,3.40
2019-02-14T00:58:48.390Z,3.30
2019-02-14T00:59:28.894Z,3.27
2019-02-14T01:00:00.165Z,3.60
2019-02-14T01:00:31.503Z,3.50
2019-02-14T01:01:02.713Z,3.08
2019-02-14T01:01:33.920Z,3.20
2019-02-14T01:02:05.098Z,3.33
2019-02-14T01:02:36.281Z,3.35
2019-02-14T01:03:07.476Z,3.22
2019-02-14T01:03:38.666Z,3.05
2019-02-14T01:04:10.329Z,3.15
2019-02-14T01:04:41.523Z,2.98
2019-02-14T01:05:13.733Z,3.25
2019-02-14T01:05:47.733Z,3.92
2019-02-14T01:06:18.947Z,3.80
2019-02-14T01:06:50.172Z,3.27
2019-02-14T01:07:21.388Z,3.52
2019-02-14T01:07:52.592Z,3.42
2019-02-14T01:08:25.841Z,3.10
2019-02-14T01:08:57.120Z,3.10
2019-02-14T01:09:28.376Z,3.40
2019-02-14T01:10:06.811Z,3.65
2019-02-14T01:10:38.024Z,3.02
2019-02-14T01:11:09.267Z,3.50
2019-02-14T01:11:40.671Z,3.58
2019-02-14T01:12:12.061Z,3.42
2019-02-14T01:12:43.397Z,3.50
2019-02-14T01:13:14.594Z,3.30
2019-02-14T01:13:45.844Z,3.35
2019-02-14T01:14:17.125Z,3.10
2019-02-14T01:14:48.385Z,3.30
2019-02-14T01:15:19.616Z,3.20
2019-02-14T01:15:51.927Z,2.95
2019-02-14T01:16:23.154Z,3.50
2019-02-14T01:16:57.304Z,2.98
2019-02-14T01:17:28.512Z,3.42
2019-02-14T01:17:59.751Z,3.65
2019-02-14T01:18:30.996Z,2.90
2019-02-14T01:19:02.232Z,3.70
2019-02-14T01:19:33.504Z,3.17
2019-02-14T01:20:04.711Z,3.25
2019-02-14T01:20:35.986Z,3.60
2019-02-14T01:21:09.421Z,3.10
2019-02-14T01:21:40.670Z,3.02
2019-02-14T01:22:11.890Z,3.50
2019-02-14T01:22:44.148Z,3.20
2019-02-14T01:23:15.372Z,3.10
2019-02-14T01:23:46.639Z,3.58
2019-02-14T01:24:17.928Z,4.08
2019-02-14T01:24:49.157Z,3.85
2019-02-14T01:25:20.400Z,3.52
2019-02-14T01:25:52.734Z,3.22
2019-02-14T01:26:23.935Z,3.95
2019-02-14T01:26:55.161Z,3.40
2019-02-14T01:27:26.467Z,3.42
2019-02-14T01:27:57.717Z,4.30
2019-02-14T01:28:28.928Z,3.55
2019-02-14T01:29:00.177Z,3.80
2019-02-14T01:29:31.371Z,3.98
2019-02-14T01:30:02.592Z,4.10
2019-02-14T01:30:33.811Z,4.60
2019-02-14T01:31:05.064Z,4.03
2019-02-14T01:31:36.267Z,4.03
2019-02-14T01:32:07.483Z,4.37
2019-02-14T01:32:39.783Z,4.50
2019-02-14T01:33:11.020Z,4.85
2019-02-14T01:33:42.269Z,3.77
2019-02-14T01:34:13.509Z,4.65
2019-02-14T01:34:44.738Z,4.50
2019-02-14T01:35:16.006Z,4.45
2019-02-14T01:35:48.291Z,5.55
2019-02-14T01:36:20.532Z,5.00
2019-02-14T01:36:51.766Z,5.30
2019-02-14T01:37:23.057Z,6.35
2019-02-14T01:37:55.316Z,5.90
2019-02-14T01:38:27.624Z,5.50
2019-02-14T01:38:58.829Z,5.35
2019-02-14T01:39:31.077Z,5.60
2019-02-14T01:40:02.362Z,5.53
2019-02-14T01:40:33.606Z,5.70
2019-02-14T01:41:05.954Z,5.47
2019-02-14T01:41:38.276Z,5.90
2019-02-14T01:42:12.413Z,5.87
2019-02-14T01:42:43.672Z,5.08
2019-02-14T01:43:16.894Z,5.85
2019-02-14T01:43:48.112Z,6.40
2019-02-14T01:44:19.315Z,5.42
2019-02-14T01:44:53.261Z,5.60
2019-02-14T01:45:24.480Z,5.50
2019-02-14T01:45:55.666Z,5.85
2019-02-14T01:46:26.855Z,6.30
2019-02-14T01:46:58.021Z,5.92
2019-02-14T01:47:33.837Z,6.25
2019-02-14T01:48:05.014Z,6.12
2019-02-14T01:48:36.197Z,6.33
2019-02-14T01:49:07.377Z,6.25
2019-02-14T01:49:38.542Z,6.78
2019-02-14T01:50:09.798Z,6.85
2019-02-14T01:50:41.081Z,5.58
2019-02-14T01:51:14.541Z,5.60
2019-02-14T01:51:45.758Z,6.47
2019-02-14T01:52:16.979Z,5.08
2019-02-14T01:52:48.189Z,6.37
2019-02-14T01:53:19.442Z,5.90
2019-02-14T01:53:50.667Z,5.20
2019-02-14T01:54:30.925Z,6.00
2019-02-14T01:55:03.208Z,5.65
2019-02-14T01:55:36.376Z,5.40
2019-02-14T01:56:07.542Z,4.05
2019-02-14T01:56:38.747Z,5.20
2019-02-14T01:57:09.948Z,5.50
2019-02-14T01:57:41.131Z,5.00
2019-02-14T01:58:12.315Z,4.05
2019-02-14T01:58:43.539Z,4.47
2019-02-14T01:59:14.773Z,3.85
2019-02-14T01:59:45.999Z,3.98
2019-02-14T02:00:17.217Z,4.17
2019-02-14T02:00:48.861Z,4.30
2019-02-14T02:01:20.073Z,3.70
2019-02-14T02:01:51.317Z,3.42
2019-02-14T02:02:22.538Z,3.62
2019-02-14T02:02:53.749Z,3.65
2019-02-14T02:03:24.944Z,3.47
2019-02-14T02:03:56.199Z,3.40
2019-02-14T02:04:29.494Z,3.58
2019-02-14T02:05:00.729Z,3.35
2019-02-14T02:05:31.944Z,3.15
2019-02-14T02:06:03.178Z,3.00
2019-02-14T02:06:34.398Z,2.20
2019-02-14T02:07:05.657Z,2.87
2019-02-14T02:07:36.890Z,3.33
2019-02-14T02:08:09.061Z,2.90
2019-02-14T02:08:40.313Z,3.60
2019-02-14T02:09:11.525Z,3.10
2019-02-14T02:09:42.758Z,2.70
2019-02-14T02:10:13.983Z,3.10
2019-02-14T02:10:46.233Z,3.12
2019-02-14T02:11:17.481Z,3.25
2019-02-14T02:11:48.706Z,3.20
2019-02-14T02:12:19.982Z,2.65
2019-02-14T02:12:52.313Z,3.20
2019-02-14T02:13:23.569Z,3.27
2019-02-14T02:13:54.786Z,2.90
2019-02-14T02:14:26.000Z,2.77
2019-02-14T02:14:57.203Z,2.75
2019-02-14T02:15:28.405Z,2.72
2019-02-14T02:15:59.641Z,3.08
2019-02-14T02:16:32.047Z,2.70
2019-02-14T02:17:03.571Z,2.65
2019-02-14T02:17:35.874Z,2.87
2019-02-14T02:18:08.242Z,2.80
2019-02-14T02:18:40.551Z,3.08
2019-02-14T02:19:11.766Z,2.80
2019-02-14T02:19:43.002Z,2.52
2019-02-14T02:20:14.235Z,2.55
2019-02-14T02:20:45.448Z,2.40
2019-02-14T02:21:16.657Z,2.40
2019-02-14T02:21:47.869Z,3.00
2019-02-14T02:22:19.138Z,2.72
2019-02-14T02:22:50.377Z,2.90
2019-02-14T02:23:21.603Z,2.90
2019-02-14T02:23:52.826Z,2.98
2019-02-14T02:24:24.094Z,2.87
2019-02-14T02:24:59.621Z,2.80
2019-02-14T02:25:33.063Z,2.65
2019-02-14T02:26:05.431Z,2.60
2019-02-14T02:26:36.735Z,3.15
2019-02-14T02:27:07.986Z,2.67
2019-02-14T02:27:39.223Z,2.40
2019-02-14T02:28:13.040Z,2.60
2019-02-14T02:28:44.244Z,2.75
2019-02-14T02:29:15.460Z,2.40
2019-02-14T02:29:46.655Z,3.10
2019-02-14T02:30:17.875Z,2.90
2019-02-14T02:30:49.126Z,3.00
2019-02-14T02:31:21.460Z,2.70
2019-02-14T02:31:52.685Z,2.40
2019-02-14T02:32:23.900Z,2.62
2019-02-14T02:32:55.110Z,2.77
2019-02-14T02:33:26.330Z,2.47
2019-02-14T02:33:57.564Z,2.80
2019-02-14T02:34:30.795Z,2.90
2019-02-14T02:35:02.011Z,2.70
2019-02-14T02:35:33.266Z,2.80
2019-02-14T02:36:06.985Z,2.47
2019-02-14T02:36:38.155Z,2.42
2019-02-14T02:37:10.395Z,2.72
2019-02-14T02:37:41.984Z,2.60
2019-02-14T02:38:13.260Z,2.85
2019-02-14T02:38:44.462Z,2.45
2019-02-14T02:39:15.723Z,2.40
2019-02-14T02:39:46.922Z,2.80
2019-02-14T02:40:18.157Z,2.67
2019-02-14T02:40:49.353Z,2.95
2019-02-14T02:41:20.564Z,3.00
2019-02-14T02:41:51.817Z,2.77
2019-02-14T02:42:23.107Z,3.05
2019-02-14T02:42:54.329Z,2.40
2019-02-14T02:43:25.569Z,2.52
2019-02-14T02:43:56.780Z,3.05
2019-02-14T02:44:30.024Z,3.25
2019-02-14T02:45:01.216Z,3.00
2019-02-14T02:45:32.415Z,2.52
2019-02-14T02:46:03.644Z,3.33
2019-02-14T02:46:37.883Z,3.30
2019-02-14T02:47:09.176Z,3.27
2019-02-14T02:47:40.450Z,3.90
2019-02-14T02:48:13.883Z,3.83
2019-02-14T02:48:46.260Z,3.90
2019-02-14T02:49:17.517Z,3.75
2019-02-14T02:49:48.717Z,3.95
2019-02-14T02:50:19.941Z,4.47
2019-02-14T02:50:51.185Z,5.05
2019-02-14T02:51:24.699Z,5.10
2019-02-14T02:51:55.913Z,5.37
2019-02-14T02:52:27.311Z,5.50
2019-02-14T02:52:58.527Z,5.95
2019-02-14T02:53:29.751Z,5.95
2019-02-14T02:54:00.980Z,5.20
2019-02-14T02:54:32.205Z,6.20
2019-02-14T02:55:03.410Z,6.72
2019-02-14T02:55:34.637Z,5.92
2019-02-14T02:56:07.901Z,5.85
2019-02-14T02:56:39.210Z,5.78
2019-02-14T02:57:10.375Z,5.33
2019-02-14T02:57:41.588Z,4.55
2019-02-14T02:58:12.866Z,4.83
2019-02-14T02:58:44.079Z,4.70
2019-02-14T02:59:15.284Z,5.30
2019-02-14T02:59:47.613Z,5.67
2019-02-14T03:00:18.857Z,4.85
2019-02-14T03:00:51.160Z,4.78
2019-02-14T03:01:22.396Z,4.28
2019-02-14T03:01:53.665Z,3.98
2019-02-14T03:02:24.859Z,4.28
2019-02-14T03:02:57.130Z,4.55
2019-02-14T03:03:28.392Z,4.05
2019-02-14T03:03:59.612Z,4.05
2019-02-14T03:04:30.860Z,3.67
2019-02-14T03:05:02.086Z,4.05
2019-02-14T03:05:35.269Z,4.90
2019-02-14T03:06:10.674Z,3.47
2019-02-14T03:06:40.515Z,4.40
2019-02-14T03:07:12.103Z,3.80
2019-02-14T03:07:43.355Z,4.25
2019-02-14T03:08:14.574Z,3.90
2019-02-14T03:08:45.824Z,4.37
2019-02-14T03:09:17.046Z,4.12
2019-02-14T03:09:50.315Z,3.80
2019-02-14T03:10:21.526Z,4.08
2019-02-14T03:10:54.144Z,3.08
2019-02-14T03:11:26.640Z,3.60
2019-02-14T03:11:57.831Z,3.75
2019-02-14T03:12:29.066Z,3.30
2019-02-14T03:13:00.357Z,3.65
2019-02-14T03:13:31.665Z,3.40
2019-02-14T03:14:02.926Z,2.90
2019-02-14T03:14:34.225Z,2.98
2019-02-14T03:15:07.446Z,3.12
2019-02-14T03:15:38.671Z,3.30
2019-02-14T03:16:09.896Z,2.70
2019-02-14T03:16:41.098Z,2.98
2019-02-14T03:17:14.560Z,3.15
2019-02-14T03:17:45.782Z,3.02
2019-02-14T03:18:16.992Z,3.75
2019-02-14T03:18:48.264Z,3.17
2019-02-14T03:19:19.466Z,3.00
2019-02-14T03:19:50.683Z,2.85
2019-02-14T03:20:22.972Z,3.05
2019-02-14T03:20:56.185Z,2.90
2019-02-14T03:21:27.412Z,3.12
2019-02-14T03:21:58.624Z,3.35
2019-02-14T03:22:29.852Z,2.62
2019-02-14T03:23:01.057Z,3.27
2019-02-14T03:23:32.275Z,3.17
2019-02-14T03:24:03.500Z,2.92
2019-02-14T03:24:34.717Z,2.92
2019-02-14T03:25:05.954Z,2.92
2019-02-14T03:25:37.244Z,3.02
2019-02-14T03:26:08.494Z,3.08
2019-02-14T03:26:39.696Z,3.33
2019-02-14T03:27:10.916Z,3.00
2019-02-14T03:27:42.128Z,2.50
2019-02-14T03:28:13.383Z,2.52
2019-02-14T03:28:44.607Z,2.83
2019-02-14T03:29:15.868Z,2.80
2019-02-14T03:29:47.119Z,2.52
2019-02-14T03:30:20.378Z,2.70
2019-02-14T03:30:52.664Z,2.98
2019-02-14T03:31:23.878Z,3.00
2019-02-14T03:31:55.164Z,2.65
2019-02-14T03:32:26.380Z,2.45
2019-02-14T03:32:57.597Z,2.80
2019-02-14T03:33:28.812Z,2.80
2019-02-14T03:34:00.056Z,3.17
2019-02-14T03:34:31.309Z,2.55
2019-02-14T03:35:02.530Z,2.72
2019-02-14T03:35:33.740Z,2.98
2019-02-14T03:36:04.969Z,2.90
2019-02-14T03:36:37.286Z,2.70
2019-02-14T03:37:08.493Z,2.35
2019-02-14T03:37:39.772Z,2.52
2019-02-14T03:38:10.998Z,2.90
2019-02-14T03:38:43.266Z,2.65
2019-02-14T03:39:14.493Z,2.77
2019-02-14T03:39:45.690Z,2.62
2019-02-14T03:40:16.967Z,2.50
2019-02-14T03:40:48.187Z,2.40
2019-02-14T03:41:19.414Z,2.90
2019-02-14T03:41:50.627Z,2.60
2019-02-14T03:42:24.211Z,2.37
2019-02-14T03:42:55.432Z,2.52
2019-02-14T03:43:27.744Z,2.40
2019-02-14T03:43:58.954Z,2.60
2019-02-14T03:44:30.164Z,2.60
2019-02-14T03:45:01.442Z,2.70
2019-02-14T03:45:32.663Z,1.90
2019-02-14T03:46:03.887Z,2.90
2019-02-14T03:46:35.129Z,2.77
2019-02-14T03:47:06.338Z,2.67
2019-02-14T03:47:38.568Z,2.70
2019-02-14T03:48:09.779Z,2.60
2019-02-14T03:48:41.324Z,2.58
2019-02-14T03:49:12.531Z,2.22
2019-02-14T03:49:43.729Z,2.90
2019-02-14T03:50:15.004Z,2.35
2019-02-14T03:50:46.213Z,2.58
2019-02-14T03:51:17.461Z,2.87
2019-02-14T03:51:48.669Z,2.87
2019-02-14T03:52:21.897Z,2.52
2019-02-14T03:52:53.112Z,3.30
2019-02-14T03:53:24.320Z,3.08
2019-02-14T03:53:56.581Z,2.75
2019-02-14T03:54:27.831Z,3.00
2019-02-14T03:54:59.094Z,2.87
2019-02-14T03:55:30.293Z,2.27
2019-02-14T03:56:01.541Z,3.05
2019-02-14T03:56:32.782Z,3.00
2019-02-14T03:57:03.983Z,3.00
2019-02-14T03:57:35.224Z,2.80
2019-02-14T03:58:06.415Z,2.33
2019-02-14T03:58:37.640Z,2.80
2019-02-14T03:59:08.854Z,2.80
2019-02-14T03:59:40.078Z,2.50
2019-02-14T04:00:11.366Z,2.05
2019-02-14T04:00:42.594Z,2.70
2019-02-14T04:01:14.872Z,2.62
2019-02-14T04:01:46.076Z,2.62
2019-02-14T04:02:17.322Z,2.83
2019-02-14T04:02:48.917Z,2.70
2019-02-14T04:03:22.168Z,2.85
2019-02-14T04:03:53.401Z,2.70
2019-02-14T04:04:24.702Z,2.85
2019-02-14T04:04:57.047Z,2.70
2019-02-14T04:05:28.301Z,2.50
2019-02-14T04:05:59.539Z,2.50
2019-02-14T04:06:30.766Z,2.65
2019-02-14T04:07:01.979Z,2.92
2019-02-14T04:07:35.451Z,3.02
2019-02-14T04:08:06.652Z,2.85
2019-02-14T04:08:40.368Z,2.60
2019-02-14T04:09:11.572Z,2.50
2019-02-14T04:09:42.809Z,2.75
2019-02-14T04:10:14.024Z,2.83
2019-02-14T04:10:45.228Z,2.58
2019-02-14T04:11:16.427Z,2.60
2019-02-14T04:11:48.777Z,2.92
2019-02-14T04:12:19.995Z,2.90
2019-02-14T04:12:51.532Z,2.67
2019-02-14T04:13:22.743Z,2.87
2019-02-14T04:13:53.968Z,2.35
2019-02-14T04:14:26.245Z,2.80
2019-02-14T04:14:57.539Z,2.60
2019-02-14T04:15:28.768Z,2.37
2019-02-14T04:16:00.072Z,3.40
2019-02-14T04:16:31.280Z,2.98
2019-02-14T04:17:02.505Z,2.55
2019-02-14T04:17:33.746Z,2.47
2019-02-14T04:18:04.971Z,2.85
2019-02-14T04:18:36.194Z,2.83
2019-02-14T04:19:07.456Z,2.80
2019-02-14T04:19:38.669Z,2.77
2019-02-14T04:20:09.882Z,2.40
2019-02-14T04:20:42.103Z,2.00
2019-02-14T04:21:14.451Z,2.35
2019-02-14T04:21:45.696Z,2.95
2019-02-14T04:22:16.903Z,2.95
2019-02-14T04:22:48.119Z,3.10
2019-02-14T04:23:21.351Z,2.35
2019-02-14T04:23:52.554Z,2.65
2019-02-14T04:24:23.773Z,2.90
2019-02-14T04:24:57.253Z,2.50
2019-02-14T04:25:28.547Z,2.70
2019-02-14T04:25:59.761Z,2.87
2019-02-14T04:26:30.968Z,2.83
2019-02-14T04:27:02.180Z,2.30
2019-02-14T04:27:33.389Z,2.60
2019-02-14T04:28:04.625Z,2.60
2019-02-14T04:28:36.916Z,2.95
2019-02-14T04:29:08.121Z,3.00
2019-02-14T04:29:39.326Z,3.92
2019-02-14T04:30:10.549Z,3.83
2019-02-14T04:30:41.904Z,3.75
2019-02-14T04:31:13.111Z,4.80
2019-02-14T04:31:44.648Z,4.95
2019-02-14T04:32:15.888Z,4.08
2019-02-14T04:32:47.121Z,4.47
2019-02-14T04:33:18.357Z,4.80
2019-02-14T04:33:49.619Z,4.17
2019-02-14T04:34:20.857Z,5.12
2019-02-14T04:34:52.060Z,4.85
2019-02-14T04:35:23.322Z,4.72
2019-02-14T04:35:54.529Z,5.03
2019-02-14T04:36:25.753Z,5.55
2019-02-14T04:36:56.986Z,5.37
2019-02-14T04:37:28.189Z,5.50
2019-02-14T04:37:59.414Z,5.25
2019-02-14T04:38:31.667Z,4.92
2019-02-14T04:39:02.862Z,5.35
2019-02-14T04:39:34.125Z,4.95
2019-02-14T04:40:05.327Z,5.22
2019-02-14T04:40:36.553Z,5.95
2019-02-14T04:41:07.760Z,6.15
2019-02-14T04:41:38.986Z,7.00
2019-02-14T04:42:11.208Z,6.80
2019-02-14T04:42:42.453Z,5.95
2019-02-14T04:43:14.731Z,6.80
2019-02-14T04:43:48.244Z,6.45
2019-02-14T04:44:20.549Z,5.45
2019-02-14T04:44:51.775Z,5.75
2019-02-14T04:45:22.987Z,6.10
2019-02-14T04:45:54.203Z,5.67
2019-02-14T04:46:25.413Z,5.70
2019-02-14T04:46:56.637Z,5.92
2019-02-14T04:47:27.884Z,6.35
2019-02-14T04:48:01.264Z,5.53
2019-02-14T04:48:32.795Z,5.05
2019-02-14T04:49:04.006Z,5.60
2019-02-14T04:49:35.256Z,4.83
2019-02-14T04:50:06.465Z,5.97
2019-02-14T04:50:37.695Z,6.10
2019-02-14T04:51:08.983Z,5.72
2019-02-14T04:51:40.988Z,5.40
2019-02-14T04:52:13.335Z,5.90
2019-02-14T04:52:44.547Z,5.40
2019-02-14T04:53:15.786Z,5.95
2019-02-14T04:53:49.208Z,5.22
2019-02-14T04:54:20.408Z,5.70
2019-02-14T04:54:53.892Z,5.42
2019-02-14T04:55:25.092Z,5.37
2019-02-14T04:55:56.288Z,6.28
2019-02-14T04:56:27.506Z,5.97
2019-02-14T04:57:01.015Z,4.03
2019-02-14T04:57:32.232Z,5.10
2019-02-14T04:58:04.551Z,5.92
2019-02-14T04:58:35.806Z,6.30
2019-02-14T04:59:07.037Z,5.87
2019-02-14T04:59:38.243Z,5.12
2019-02-14T05:00:09.473Z,6.45
2019-02-14T05:00:40.671Z,5.17
2019-02-14T05:01:11.892Z,5.15
2019-02-14T05:01:43.150Z,4.50
2019-02-14T05:02:14.365Z,5.47
2019-02-14T05:02:45.624Z,4.70
2019-02-14T05:03:16.871Z,4.58
2019-02-14T05:03:48.110Z,4.67
2019-02-14T05:04:20.420Z,5.10
2019-02-14T05:04:52.725Z,4.95
2019-02-14T05:05:26.239Z,5.33
2019-02-14T05:05:58.527Z,4.53
2019-02-14T05:06:29.819Z,5.12
2019-02-14T05:07:02.103Z,4.37
2019-02-14T05:07:33.318Z,3.98
2019-02-14T05:08:04.578Z,4.95
2019-02-14T05:08:35.805Z,4.70
2019-02-14T05:09:07.022Z,4.83
2019-02-14T05:09:38.236Z,4.85
2019-02-14T05:10:09.447Z,4.83
2019-02-14T05:10:41.797Z,5.42
2019-02-14T05:11:13.073Z,4.75
2019-02-14T05:11:44.299Z,4.12
2019-02-14T05:12:15.509Z,4.90
2019-02-14T05:12:47.772Z,3.37
2019-02-14T05:13:19.021Z,3.98
2019-02-14T05:13:50.250Z,3.50
2019-02-14T05:14:22.532Z,2.98
2019-02-14T05:14:54.866Z,3.72
2019-02-14T05:15:26.093Z,4.47
2019-02-14T05:15:57.338Z,4.20
2019-02-14T05:16:28.538Z,4.28
2019-02-14T05:16:59.776Z,3.72
2019-02-14T05:17:31.050Z,3.60
2019-02-14T05:18:02.281Z,3.90
2019-02-14T05:18:33.521Z,3.60
2019-02-14T05:19:07.006Z,3.20
2019-02-14T05:19:38.216Z,3.85
2019-02-14T05:20:09.751Z,3.80
2019-02-14T05:20:40.982Z,3.10
2019-02-14T05:21:12.187Z,4.00
2019-02-14T05:21:43.409Z,3.95
2019-02-14T05:22:16.908Z,3.85
2019-02-14T05:22:48.111Z,3.67
2019-02-14T05:23:19.339Z,3.98
2019-02-14T05:23:50.598Z,3.60
2019-02-14T05:24:21.853Z,3.85
2019-02-14T05:24:53.041Z,3.72
2019-02-14T05:25:26.535Z,4.00
2019-02-14T05:25:57.745Z,3.58
2019-02-14T05:26:31.451Z,3.65
2019-02-14T05:27:02.655Z,3.87
2019-02-14T05:27:35.960Z,3.87
2019-02-14T05:28:07.171Z,4.00
2019-02-14T05:28:38.388Z,3.85
2019-02-14T05:29:10.673Z,4.92
2019-02-14T05:29:41.887Z,5.00
2019-02-14T05:30:13.154Z,5.33
2019-02-14T05:30:44.379Z,4.97
2019-02-14T05:31:15.617Z,4.67
2019-02-14T05:31:46.817Z,5.33
2019-02-14T05:32:18.018Z,5.55
2019-02-14T05:32:50.638Z,5.72
2019-02-14T05:33:21.860Z,5.95
2019-02-14T05:33:54.136Z,5.83
2019-02-14T05:34:26.409Z,5.40
2019-02-14T05:34:57.675Z,6.22
2019-02-14T05:35:29.954Z,5.10
2019-02-14T05:36:01.169Z,6.83
2019-02-14T05:36:32.372Z,6.92
2019-02-14T05:37:03.624Z,5.70
2019-02-14T05:37:34.826Z,5.92
2019-02-14T05:38:06.037Z,5.37
2019-02-14T05:38:37.235Z,6.22
2019-02-14T05:39:10.711Z,6.12
2019-02-14T05:39:42.987Z,7.50
2019-02-14T05:40:14.212Z,6.80
2019-02-14T05:40:45.462Z,6.30
2019-02-14T05:41:16.680Z,4.65
2019-02-14T05:41:47.890Z,6.70
2019-02-14T05:42:21.094Z,6.37
2019-02-14T05:42:52.294Z,5.72
2019-02-14T05:43:23.505Z,6.22
2019-02-14T05:43:54.732Z,4.97
2019-02-14T05:44:25.950Z,5.90
2019-02-14T05:44:57.165Z,6.05
2019-02-14T05:45:29.487Z,5.85
2019-02-14T05:46:00.724Z,6.62
2019-02-14T05:46:31.938Z,5.15
2019-02-14T05:47:03.152Z,6.03
2019-02-14T05:47:34.367Z,5.85
2019-02-14T05:48:05.578Z,5.87
2019-02-14T05:48:36.799Z,5.70
2019-02-14T05:49:08.068Z,5.75
2019-02-14T05:49:39.315Z,6.42
2019-02-14T05:50:10.521Z,6.58
2019-02-14T05:50:41.745Z,5.87
2019-02-14T05:51:12.974Z,6.47
2019-02-14T05:51:44.205Z,6.47
2019-02-14T05:52:15.402Z,6.78
2019-02-14T05:52:46.680Z,5.95
2019-02-14T05:53:17.870Z,6.12
2019-02-14T05:53:49.132Z,7.08
2019-02-14T05:54:20.378Z,7.25
2019-02-14T05:54:52.639Z,6.42
2019-02-14T05:55:23.840Z,7.47
2019-02-14T05:55:55.055Z,7.20
2019-02-14T05:56:26.288Z,7.50
2019-02-14T05:56:57.500Z,6.90
2019-02-14T05:57:28.711Z,6.40
2019-02-14T05:57:59.929Z,9.33
2019-02-14T05:58:31.187Z,6.67
2019-02-14T05:59:02.414Z,6.58
2019-02-14T05:59:33.899Z,6.58
2019-02-14T06:00:05.184Z,6.28
2019-02-14T06:00:36.391Z,5.78
2019-02-14T06:01:07.609Z,7.60
2019-02-14T06:01:38.823Z,5.67
2019-02-14T06:02:10.029Z,5.25
2019-02-14T06:02:42.354Z,6.55
2019-02-14T06:03:13.588Z,7.08
2019-02-14T06:03:44.854Z,5.65
2019-02-14T06:04:16.081Z,6.83
2019-02-14T06:04:47.374Z,5.55
2019-02-14T06:05:18.630Z,5.50
2019-02-14T06:05:49.847Z,5.25
2019-02-14T06:06:21.058Z,4.15
2019-02-14T06:06:52.317Z,5.58
2019-02-14T06:07:23.502Z,4.90
2019-02-14T06:07:54.711Z,7.85
2019-02-14T06:08:25.945Z,4.00
2019-02-14T06:08:58.208Z,3.87
2019-02-14T06:09:29.469Z,5.30
2019-02-14T06:10:00.707Z,6.53
2019-02-14T06:10:31.986Z,6.08
2019-02-14T06:11:03.206Z,4.58
2019-02-14T06:11:34.427Z,6.37
2019-02-14T06:12:06.711Z,7.40
2019-02-14T06:12:38.074Z,4.60
2019-02-14T06:13:09.291Z,4.33
2019-02-14T06:13:40.538Z,4.60
2019-02-14T06:14:11.782Z,9.25
2019-02-14T06:14:42.971Z,4.55
2019-02-14T06:15:14.198Z,9.13
2019-02-14T06:15:45.465Z,5.60
2019-02-14T06:16:16.689Z,5.03
2019-02-14T06:16:48.959Z,4.45
2019-02-14T06:17:20.227Z,4.70
2019-02-14T06:17:51.465Z,3.70
2019-02-14T06:18:22.710Z,5.37
2019-02-14T06:18:53.909Z,5.30
2019-02-14T06:19:25.137Z,5.40
2019-02-14T06:19:56.368Z,4.67
2019-02-14T06:20:27.614Z,4.33
2019-02-14T06:20:58.896Z,7.25
2019-02-14T06:21:30.113Z,6.15
2019-02-14T06:22:01.331Z,6.62
2019-02-14T06:22:32.562Z,4.65
2019-02-14T06:23:03.813Z,13.45
2019-02-14T06:23:35.012Z,5.35
2019-02-14T06:24:06.240Z,5.22
2019-02-14T06:24:37.441Z,5.47
2019-02-14T06:25:08.686Z,5.62
2019-02-14T06:25:42.295Z,4.87
2019-02-14T06:26:14.664Z,6.67
2019-02-14T06:26:45.883Z,5.20
2019-02-14T06:27:17.111Z,5.47
2019-02-14T06:27:48.309Z,5.60
2019-02-14T06:28:19.602Z,3.67
2019-02-14T06:28:50.841Z,4.83
2019-02-14T06:29:22.047Z,6.67
2019-02-14T06:29:53.273Z,7.17
2019-02-14T06:30:24.527Z,3.90
2019-02-14T06:30:55.722Z,4.35
2019-02-14T06:31:26.943Z,5.83
2019-02-14T06:31:58.186Z,4.67
2019-02-14T06:32:29.426Z,6.05
2019-02-14T06:33:00.677Z,6.50
2019-02-14T06:33:32.821Z,4.92
2019-02-14T06:34:04.057Z,4.58
2019-02-14T06:34:35.284Z,6.37
2019-02-14T06:35:06.500Z,9.83
2019-02-14T06:35:37.708Z,5.75
2019-02-14T06:36:08.938Z,3.50
2019-02-14T06:36:40.168Z,5.40
2019-02-14T06:37:13.418Z,4.20
2019-02-14T06:37:44.299Z,4.15
2019-02-14T06:38:15.852Z,6.60
2019-02-14T06:38:47.072Z,5.90
2019-02-14T06:39:18.267Z,4.67
2019-02-14T06:39:49.501Z,5.55
2019-02-14T06:40:20.709Z,3.87
2019-02-14T06:40:51.931Z,3.37
2019-02-14T06:41:23.184Z,5.35
2019-02-14T06:41:54.407Z,4.65
2019-02-14T06:42:25.622Z,4.33
2019-02-14T06:42:56.872Z,6.00
2019-02-14T06:43:28.128Z,5.33
2019-02-14T06:43:59.326Z,10.45
2019-02-14T06:44:30.532Z,9.40
2019-02-14T06:45:01.753Z,5.97
2019-02-14T06:45:32.956Z,5.15
2019-02-14T06:46:04.168Z,3.98
2019-02-14T06:46:35.396Z,4.70
2019-02-14T06:47:06.598Z,5.75
2019-02-14T06:47:37.822Z,7.33
2019-02-14T06:48:09.090Z,6.12
2019-02-14T06:48:40.301Z,4.65
2019-02-14T06:49:11.562Z,6.20
2019-02-14T06:49:42.802Z,4.53
2019-02-14T06:50:13.988Z,4.28
2019-02-14T06:50:45.196Z,4.70
2019-02-14T06:51:16.459Z,5.37
2019-02-14T06:51:47.689Z,5.10
2019-02-14T06:52:19.947Z,4.22
2019-02-14T06:52:53.162Z,4.95
2019-02-14T06:53:24.432Z,5.62
2019-02-14T06:54:02.704Z,12.63
2019-02-14T06:54:33.942Z,6.35
2019-02-14T06:55:05.165Z,7.25
2019-02-14T06:55:36.401Z,6.40
2019-02-14T06:56:07.637Z,16.23
2019-02-14T06:56:39.913Z,8.48
2019-02-14T06:57:11.129Z,4.70
2019-02-14T06:57:42.361Z,6.67
2019-02-14T06:58:13.593Z,6.12
2019-02-14T06:58:44.835Z,4.40
2019-02-14T06:59:16.044Z,5.10
2019-02-14T06:59:47.284Z,5.62